Time;durP1;ratioP1;P1;durP2;ratioP2;P2;SDS_P1;SDS_P2;PMS_P1;PMS_P2;Temp;Humidity;BMP_temperature;BMP_pressure;BME280_temperature;BME280_humidity;BME280_pressure;Samples;Min_cycle;Max_cycle;Signal;HPM_P1;HPM_P2
2022/08/18 00:01:09;;;;;;;;;;;;;;;24.06;100.00;95840.66;5045296;28;20112;-55
2022/08/18 00:03:40;;;;;;;11.95;9.00;;;;;;;24.02;100.00;95848.41;5043525;28;20765;-53
2022/08/18 00:06:29;;;;;;;12.27;9.93;;;;;;;24.43;100.00;95870.63;5046490;28;20107;-50
2022/08/18 00:08:58;;;;;;;13.13;9.75;;;;;;;24.59;100.00;95868.97;5039319;28;20475;-52
2022/08/18 00:11:27;;;;;;;14.63;10.37;;;;;;;24.62;100.00;95871.19;5045563;28;20566;-51
2022/08/18 00:14:11;;;;;;;12.77;10.38;;;;;;;24.94;100.00;95884.84;5047053;28;20072;-51
2022/08/18 00:16:52;;;;;;;12.20;10.52;;;;;;;24.76;100.00;95880.56;5046120;28;20084;-53
2022/08/18 00:19:21;;;;;;;13.13;10.45;;;;;;;24.89;100.00;95887.47;5040049;28;20085;-54
2022/08/18 00:22:12;;;;;;;17.15;11.38;;;;;;;24.96;100.00;95885.41;5043016;28;20097;-50
2022/08/18 00:24:43;;;;;;;12.18;10.98;;;;;;;25.15;100.00;95902.13;5045619;28;20124;-54
2022/08/18 00:27:20;;;;;;;11.32;10.13;;;;;;;24.86;100.00;95912.25;5046098;28;20475;-53
2022/08/18 00:29:49;;;;;;;13.23;10.70;;;;;;;24.68;100.00;95913.34;5042078;28;20092;-53
2022/08/18 00:32:20;;;;;;;13.70;10.23;;;;;;;25.22;100.00;95910.03;5042893;28;20081;-52
2022/08/18 00:34:48;;;;;;;14.13;9.80;;;;;;;24.69;100.00;95908.75;5047558;28;20084;-53
2022/08/18 00:37:18;;;;;;;12.20;9.90;;;;;;;24.77;100.00;95903.75;5042021;28;20081;-48
2022/08/18 00:39:46;;;;;;;14.52;11.43;;;;;;;25.06;100.00;95896.34;5043028;28;20532;-51
2022/08/18 00:42:17;;;;;;;11.57;10.38;;;;;;;25.23;100.00;95884.72;5043361;28;20072;-48
2022/08/18 00:45:00;;;;;;;12.70;10.70;;;;;;;25.41;100.00;95876.28;5046415;28;20539;-52
2022/08/18 00:47:29;;;;;;;12.88;10.40;;;;;;;25.03;100.00;95883.34;5042647;28;20080;-54
2022/08/18 00:50:13;;;;;;;13.80;10.95;;;;;;;25.15;100.00;95888.63;5040473;28;20077;-53
2022/08/18 00:52:48;;;;;;;12.70;10.02;;;;;;;24.93;100.00;95895.88;5040751;28;20135;-50
2022/08/18 00:55:18;;;;;;;12.40;10.30;;;;;;;24.95;100.00;95899.97;5039260;28;20084;-59
2022/08/18 00:57:48;;;;;;;14.40;11.07;;;;;;;24.92;100.00;95908.56;5042827;28;20085;-51
2022/08/18 01:00:18;;;;;;;14.25;10.95;;;;;;;25.14;100.00;95918.59;5036601;28;20085;-50
2022/08/18 01:02:48;;;;;;;13.27;11.30;;;;;;;24.74;100.00;95925.84;5042349;28;20746;-53
2022/08/18 01:05:18;;;;;;;;;;;;;;;24.56;100.00;95931.47;5036755;28;20099;-51
2022/08/18 01:07:48;;;;;;;12.50;11.20;;;;;;;24.23;100.00;95911.53;5038419;28;19948;-53
2022/08/18 01:10:19;;;;;;;12.13;10.75;;;;;;;24.67;100.00;95905.47;5047525;28;20504;-52
2022/08/18 01:12:50;;;;;;;13.77;10.65;;;;;;;24.68;100.00;95899.84;5035852;28;20077;-50
2022/08/18 01:15:19;;;;;;;12.52;10.07;;;;;;;24.35;100.00;95901.47;5042646;28;20476;-54
2022/08/18 01:23:36;;;;;;;16.23;10.93;;;;;;;24.80;100.00;95897.84;5036580;28;20077;-51
2022/08/18 01:26:05;;;;;;;13.32;10.57;;;;;;;24.85;100.00;95897.13;5037177;28;20083;-51
2022/08/18 01:28:35;;;;;;;11.38;10.13;;;;;;;24.86;100.00;95913.06;5038248;28;20084;-48
2022/08/18 01:31:04;;;;;;;14.45;10.90;;;;;;;24.50;100.00;95925.22;5036386;28;20494;-52
2022/08/18 01:33:35;;;;;;;13.57;11.18;;;;;;;24.16;100.00;95927.84;5041309;28;20076;-48
2022/08/18 01:36:11;;;;;;;13.85;10.68;;;;;;;24.28;100.00;95918.88;5044539;28;20077;-54
2022/08/18 01:38:41;;;;;;;15.30;11.00;;;;;;;24.17;100.00;95905.22;5039711;28;20119;-54
2022/08/18 01:41:09;;;;;;;13.20;11.70;;;;;;;24.56;100.00;95894.53;5035240;28;20082;-53
2022/08/18 01:43:57;;;;;;;11.48;10.32;;;;;;;23.87;100.00;95904.69;5044327;28;20076;-47
2022/08/18 01:46:26;;;;;;;11.82;10.63;;;;;;;24.21;100.00;95912.81;5043698;28;20072;-56
2022/08/18 01:49:00;;;;;;;12.45;10.80;;;;;;;24.35;100.00;95908.75;5036792;28;20466;-54
2022/08/18 01:51:31;;;;;;;12.00;10.68;;;;;;;23.68;100.00;95904.09;5036709;28;20073;-54
2022/08/18 01:54:14;;;;;;;11.90;10.53;;;;;;;23.66;100.00;95911.56;5036897;28;20084;-52
2022/08/18 01:56:43;;;;;;;11.43;10.30;;;;;;;23.93;100.00;95915.31;5039022;28;20089;-53
2022/08/18 01:59:13;;;;;;;13.55;10.63;;;;;;;24.19;100.00;95898.78;5031621;28;20104;-48
2022/08/18 02:01:46;;;;;;;12.73;10.63;;;;;;;23.72;100.00;95913.31;5040593;28;20106;-55
2022/08/18 02:04:22;;;;;;;12.88;10.40;;;;;;;23.48;100.00;95919.81;5039742;28;20081;-48
2022/08/18 02:07:05;;;;;;;14.15;9.80;;;;;;;24.08;100.00;95916.66;5040612;28;20080;-54
2022/08/18 02:09:36;;;;;;;11.00;9.50;;;;;;;23.77;100.00;95920.66;5035106;28;20524;-55
2022/08/18 02:12:06;;;;;;;12.55;9.60;;;;;;;23.77;100.00;95909.91;5041082;28;20076;-57
2022/08/18 02:14:34;;;;;;;9.60;8.50;;;;;;;23.35;100.00;95902.88;5039290;28;20080;-49
2022/08/18 02:17:04;;;;;;;11.13;8.50;;;;;;;23.34;100.00;95901.25;5033240;28;20084;-52
2022/08/18 02:19:34;;;;;;;10.63;9.52;;;;;;;23.72;100.00;95897.16;5040089;28;20082;-54
2022/08/18 02:22:03;;;;;;;12.98;9.50;;;;;;;23.50;100.00;95899.66;5041141;28;20463;-49
2022/08/18 02:24:31;;;;;;;10.98;9.52;;;;;;;23.19;100.00;95912.53;5038543;28;20139;-54
2022/08/18 02:27:01;;;;;;;11.40;9.43;;;;;;;23.22;100.00;95917.41;5037941;28;20087;-52
2022/08/18 02:29:30;;;;;;;11.60;9.93;;;;;;;23.43;100.00;95918.69;5030915;28;20520;-56
2022/08/18 02:31:58;;;;;;;11.38;9.30;;;;;;;24.06;100.00;95916.09;5040409;28;20073;-53
2022/08/18 02:34:27;;;;;;;10.65;8.95;;;;;;;23.06;100.00;95915.47;5036516;28;20495;-54
2022/08/18 02:36:55;;;;;;;11.02;9.05;;;;;;;23.12;100.00;95916.38;5035582;28;20081;-53
2022/08/18 02:39:23;;;;;;;9.90;8.88;;;;;;;23.35;100.00;95912.84;5036712;28;20056;-57
2022/08/18 02:41:52;;;;;;;14.25;9.60;;;;;;;23.47;100.00;95913.63;5036836;28;20080;-52
2022/08/18 02:44:22;;;;;;;10.50;9.32;;;;;;;23.20;100.00;95922.22;5033635;28;20084;-51
2022/08/18 02:46:52;;;;;;;10.98;9.48;;;;;;;23.58;100.00;95903.88;5040539;28;20072;-57
2022/08/18 02:49:21;;;;;;;11.15;9.00;;;;;;;23.38;100.00;95896.22;5037231;28;20084;-57
2022/08/18 02:51:50;;;;;;;10.30;8.80;;;;;;;22.94;100.00;95902.03;5035713;28;20080;-53
2022/08/18 02:54:19;;;;;;;10.85;8.88;;;;;;;23.10;100.00;95899.69;5033039;28;20081;-51
2022/08/18 02:56:49;;;;;;;10.38;9.27;;;;;;;23.05;100.00;95903.06;5042234;28;20077;-54
2022/08/18 02:59:19;;;;;;;15.07;9.13;;;;;;;22.94;100.00;95904.72;5039146;28;20092;-55
2022/08/18 03:01:51;;;;;;;10.70;9.60;;;;;;;23.16;100.00;95906.81;5037637;28;20088;-47
2022/08/18 03:04:22;;;;;;;10.27;8.85;;;;;;;23.39;100.00;95911.28;5034528;28;20103;-56
2022/08/18 03:06:58;;;;;;;10.57;9.43;;;;;;;23.30;100.00;95907.38;5035072;28;20088;-49
2022/08/18 03:09:27;;;;;;;11.30;9.38;;;;;;;22.87;100.00;95909.38;5035276;28;20507;-51
2022/08/18 03:11:55;;;;;;;10.13;8.88;;;;;;;22.83;100.00;95900.16;5038753;28;20081;-50
2022/08/18 03:14:24;;;;;;;15.50;9.35;;;;;;;23.15;100.00;95891.72;5037177;28;20076;-50
2022/08/18 03:16:54;;;;;;;12.38;9.73;;;;;;;22.88;100.00;95899.44;5033390;28;20476;-56
2022/08/18 03:19:24;;;;;;;9.60;8.60;;;;;;;22.91;100.00;95893.59;5038665;28;20092;-53
2022/08/18 03:21:53;;;;;;;9.85;8.77;;;;;;;22.87;100.00;95904.00;5037659;28;20085;-54
2022/08/18 03:24:25;;;;;;;11.50;9.95;;;;;;;22.94;100.00;95910.09;5041969;28;20088;-55
2022/08/18 03:26:55;;;;;;;12.15;10.13;;;;;;;23.10;100.00;95908.56;5041729;28;20073;-55
2022/08/18 03:29:24;;;;;;;11.48;9.57;;;;;;;23.16;100.00;95917.56;5048358;28;20103;-52
2022/08/18 03:32:00;;;;;;;11.70;10.15;;;;;;;23.06;100.00;95915.47;5039917;28;20077;-51
2022/08/18 03:34:29;;;;;;;11.43;10.05;;;;;;;22.49;100.00;95910.69;5042332;28;20115;-55
2022/08/18 03:36:58;;;;;;;13.80;10.52;;;;;;;22.91;100.00;95898.97;5044135;28;20088;-48
2022/08/18 03:39:27;;;;;;;13.60;11.27;;;;;;;23.17;100.00;95890.44;5036826;28;20085;-53
2022/08/18 03:41:56;;;;;;;15.90;10.80;;;;;;;23.14;100.00;95893.59;5047021;28;20538;-56
2022/08/18 03:44:32;;;;;;;14.40;10.68;;;;;;;23.29;100.00;95890.38;5039257;28;20081;-57
2022/08/18 03:47:04;;;;;;;12.40;11.00;;;;;;;23.24;100.00;95892.16;5038771;28;20340;-53
2022/08/18 03:49:33;;;;;;;13.25;11.85;;;;;;;23.35;100.00;95894.81;5038187;28;20069;-56
2022/08/18 03:52:02;;;;;;;13.48;11.48;;;;;;;22.93;100.00;95903.09;5040127;28;20092;-51
2022/08/18 03:54:32;;;;;;;13.27;11.88;;;;;;;22.94;100.00;95896.66;5045001;28;20080;-52
2022/08/18 03:57:00;;;;;;;;;;;;;;;23.11;100.00;95904.81;5044575;28;20100;-58
2022/08/18 03:59:30;;;;;;;18.23;12.25;;;;;;;22.99;100.00;95898.66;5040601;28;19952;-51
2022/08/18 04:02:04;;;;;;;13.73;11.95;;;;;;;23.35;100.00;95896.69;5039061;28;20089;-53
2022/08/18 04:04:32;;;;;;;14.55;13.05;;;;;;;23.29;100.00;95893.06;5045085;28;20080;-58
2022/08/18 04:07:04;;;;;;;15.05;12.88;;;;;;;23.54;100.00;95894.66;5035381;28;20072;-55
2022/08/18 04:09:33;;;;;;;14.63;12.10;;;;;;;23.76;100.00;95884.03;5041742;28;20119;-56
2022/08/18 04:12:10;;;;;;;14.15;12.65;;;;;;;23.33;100.00;95882.66;5039238;28;20091;-54
2022/08/18 04:14:46;;;;;;;15.32;12.77;;;;;;;23.79;100.00;95880.88;5038239;28;20073;-55
2022/08/18 04:17:23;;;;;;;16.92;12.57;;;;;;;23.42;100.00;95879.34;5036700;28;20532;-54
2022/08/18 04:19:53;;;;;;;16.15;12.82;;;;;;;23.33;100.00;95888.03;5036465;28;20076;-52
2022/08/18 04:22:21;;;;;;;13.82;12.02;;;;;;;23.42;100.00;95894.69;5039700;28;20126;-55
2022/08/18 04:24:50;;;;;;;13.20;11.57;;;;;;;23.77;100.00;95882.97;5050740;28;20089;-54
2022/08/18 04:27:19;;;;;;;14.52;12.23;;;;;;;23.84;100.00;95889.84;5050986;28;20104;-53
2022/08/18 04:29:47;;;;;;;14.75;12.07;;;;;;;23.91;100.00;95881.59;5051190;28;20092;-56
2022/08/18 04:32:18;;;;;;;13.13;11.70;;;;;;;23.95;100.00;95880.09;5051748;28;20084;-57
2022/08/18 04:34:46;;;;;;;12.20;10.77;;;;;;;23.58;100.00;95883.16;5046717;28;20081;-51
2022/08/18 04:37:15;;;;;;;12.38;10.90;;;;;;;23.62;100.00;95873.53;5049445;28;20092;-53
2022/08/18 04:39:44;;;;;;;13.70;10.98;;;;;;;23.98;100.00;95866.09;5050200;28;20076;-49
2022/08/18 04:42:12;;;;;;;12.50;10.95;;;;;;;23.90;100.00;95869.22;5051273;28;20484;-54
2022/08/18 04:44:41;;;;;;;12.70;10.90;;;;;;;23.87;100.00;95869.69;5040380;28;20538;-50
2022/08/18 04:47:11;;;;;;;12.07;10.77;;;;;;;24.27;100.00;95864.16;5048417;28;20091;-54
2022/08/18 04:49:42;;;;;;;12.48;11.18;;;;;;;24.13;100.00;95860.97;5045579;28;20081;-51
2022/08/18 04:55:08;;;;;;;12.25;10.45;;;;;;;24.54;100.00;95869.72;5051852;28;20092;-53
2022/08/18 04:57:37;;;;;;;14.73;10.57;;;;;;;24.19;100.00;95874.53;5051273;28;20539;-54
2022/08/18 05:00:12;;;;;;;12.77;11.35;;;;;;;25.52;100.00;95871.81;5050726;28;20179;-56
2022/08/18 05:02:40;;;;;;;12.73;10.63;;;;;;;25.90;100.00;95873.56;5049491;28;20122;-55
2022/08/18 05:05:10;;;;;;;11.43;10.32;;;;;;;26.74;100.00;95874.81;5048900;28;20084;-55
2022/08/18 05:07:44;;;;;;;11.18;9.63;;;;;;;27.56;100.00;95870.56;5051096;28;20049;-48
2022/08/18 05:10:16;;;;;;;12.45;9.25;;;;;;;27.79;100.00;95880.16;5050541;28;20473;-53
2022/08/18 05:12:47;;;;;;;10.30;9.18;;;;;;;27.66;100.00;95886.84;5050612;28;20073;-48
2022/08/18 05:15:16;;;;;;;12.07;8.40;;;;;;;27.98;100.00;95888.59;5051134;28;20476;-56
2022/08/18 05:17:45;;;;;;;9.52;8.50;;;;;;;27.33;100.00;95895.44;5047356;28;20068;-54
2022/08/18 05:20:19;;;;;;;10.05;8.45;;;;;;;27.80;100.00;95891.81;5044890;28;20096;-55
2022/08/18 05:22:48;;;;;;;9.25;8.35;;;;;;;28.31;100.00;95908.13;5049358;28;20073;-50
2022/08/18 05:25:17;;;;;;;9.52;8.20;;;;;;;27.95;100.00;95901.88;5050629;28;20096;-55
2022/08/18 05:27:45;;;;;;;10.68;8.55;;;;;;;27.47;100.00;95901.97;5050449;28;20080;-55
2022/08/18 05:30:14;;;;;;;8.77;7.85;;;;;;;28.77;100.00;95889.16;5049946;28;20089;-54
2022/08/18 05:32:45;;;;;;;9.27;8.15;;;;;;;28.37;100.00;95880.75;5048084;28;20593;-55
2022/08/18 05:35:22;;;;;;;9.40;7.70;;;;;;;28.51;100.00;95888.38;5050880;28;20076;-55
2022/08/18 05:38:14;;;;;;;9.55;8.55;;;;;;;26.49;100.00;95894.38;5050532;28;20087;-56
2022/08/18 05:40:44;;;;;;;9.93;8.30;;;;;;;26.70;100.00;95903.44;5041834;28;20084;-54
2022/08/18 05:43:14;;;;;;;9.73;8.55;;;;;;;26.76;100.00;95907.81;5048296;28;20080;-52
2022/08/18 05:45:42;;;;;;;10.00;8.95;;;;;;;26.74;100.00;95910.78;5043970;28;20084;-55
2022/08/18 05:48:11;;;;;;;13.02;9.38;;;;;;;26.27;100.00;95926.88;5044179;28;20077;-54
2022/08/18 05:50:41;;;;;;;10.32;8.60;;;;;;;26.22;100.00;95924.97;5047810;28;20707;-51
2022/08/18 05:53:13;;;;;;;9.55;8.55;;;;;;;26.77;100.00;95922.16;5048190;28;20464;-57
2022/08/18 05:58:35;;;;;;;9.40;8.40;;;;;;;25.27;100.00;95918.22;5050293;28;20068;-55
2022/08/18 06:01:07;;;;;;;10.77;9.05;;;;;;;25.75;100.00;95917.44;5049266;28;20080;-54
2022/08/18 06:03:38;;;;;;;10.80;8.95;;;;;;;25.28;100.00;95920.66;5049318;28;20159;-49
2022/08/18 06:06:18;;;;;;;12.13;8.98;;;;;;;25.72;100.00;95933.34;5043733;28;20080;-53
2022/08/18 06:08:56;;;;;;;10.93;8.93;;;;;;;26.20;100.00;95948.72;5050111;28;20080;-53
2022/08/18 06:11:25;;;;;;;10.57;8.65;;;;;;;25.51;100.00;95956.59;5049484;28;20164;-52
2022/08/18 06:13:53;;;;;;;9.77;8.32;;;;;;;25.62;100.00;95957.53;5049755;28;20076;-50
2022/08/18 06:16:42;;;;;;;10.27;9.00;;;;;;;26.43;100.00;95957.59;5049749;28;20091;-50
2022/08/18 06:19:27;;;;;;;10.27;9.00;;;;;;;26.00;100.00;95953.91;5049768;28;20080;-54
2022/08/18 06:22:03;;;;;;;11.15;8.98;;;;;;;27.15;100.00;95934.59;5049657;28;20099;-53
2022/08/18 06:24:37;;;;;;;10.23;9.05;;;;;;;26.00;100.00;95937.72;5049341;28;20084;-55
2022/08/18 06:27:12;;;;;;;9.23;8.32;;;;;;;26.81;100.00;95929.50;5048513;28;20111;-56
2022/08/18 06:29:51;;;;;;;10.13;8.98;;;;;;;26.69;100.00;95943.19;5046538;28;20089;-56
2022/08/18 06:32:27;;;;;;;15.00;9.55;;;;;;;27.16;100.00;95941.66;5049554;28;20088;-53
2022/08/18 06:35:07;;;;;;;13.45;9.45;;;;;;;26.97;100.00;95946.63;5044876;28;20072;-55
2022/08/18 06:40:24;;;;;;;10.98;9.30;;;;;;;26.82;100.00;95939.25;5048649;28;20507;-51
2022/08/18 06:42:53;;;;;;;9.82;8.43;;;;;;;26.38;100.00;95944.00;5044634;28;20083;-52
2022/08/18 06:45:26;;;;;;;9.82;8.88;;;;;;;26.77;100.00;95935.66;5049195;28;20558;-52
2022/08/18 06:48:08;;;;;;;10.55;9.25;;;;;;;26.95;100.00;95932.56;5045634;28;20081;-53
2022/08/18 06:50:49;;;;;;;10.93;9.27;;;;;;;27.16;100.00;95930.81;5048071;28;20670;-50
2022/08/18 06:53:20;;;;;;;10.45;9.20;;;;;;;26.66;100.00;95935.59;5048964;28;20080;-55
2022/08/18 06:55:55;;;;;;;9.60;8.68;;;;;;;27.26;100.00;95930.06;5048876;28;20083;-56
2022/08/18 06:58:28;;;;;;;10.02;8.48;;;;;;;27.04;100.00;95928.28;5049071;28;20092;-52
2022/08/18 07:01:00;;;;;;;10.45;9.15;;;;;;;27.66;100.00;95919.38;5047185;28;20049;-50
2022/08/18 07:03:44;;;;;;;9.32;8.43;;;;;;;26.99;100.00;95914.72;5048195;28;20085;-53
2022/08/18 07:06:26;;;;;;;9.80;8.30;;;;;;;27.87;100.00;95911.31;5042751;28;20077;-52
2022/08/18 07:09:20;;;;;;;9.38;8.45;;;;;;;27.56;100.00;95913.09;5049077;28;20155;-56
2022/08/18 07:12:00;;;;;;;13.57;9.60;;;;;;;27.81;100.00;95904.28;5048312;28;20072;-53
2022/08/18 07:14:28;;;;;;;14.02;8.65;;;;;;;27.76;100.00;95899.66;5049695;28;20068;-54
2022/08/18 07:17:07;;;;;;;9.73;8.80;;;;;;;28.14;100.00;95886.69;5049437;28;20081;-53
2022/08/18 07:19:36;;;;;;;10.38;8.73;;;;;;;27.88;100.00;95883.97;5046973;28;20145;-53
2022/08/18 07:22:08;;;;;;;10.05;9.02;;;;;;;28.08;100.00;95887.78;5048642;28;20296;-51
2022/08/18 07:24:40;;;;;;;11.88;9.70;;;;;;;28.09;100.00;95887.53;5047283;28;20077;-47
2022/08/18 07:27:11;;;;;;;12.40;9.43;;;;;;;27.87;100.00;95892.34;5049534;28;20081;-57
2022/08/18 07:29:41;;;;;;;10.38;9.38;;;;;;;28.01;100.00;95896.19;5048692;28;20535;-52
2022/08/18 07:32:16;;;;;;;9.95;8.95;;;;;;;28.01;100.00;95890.78;5047941;28;20103;-51
2022/08/18 07:34:52;;;;;;;11.07;9.45;;;;;;;28.14;100.00;95897.53;5044480;28;20077;-55
2022/08/18 07:37:26;;;;;;;10.60;9.30;;;;;;;28.63;100.00;95910.59;5043699;28;20084;-56
2022/08/18 07:40:01;;;;;;;11.27;10.18;;;;;;;28.18;100.00;95904.06;5043527;28;20107;-52
2022/08/18 07:42:37;;;;;;;11.40;9.93;;;;;;;28.57;100.00;95912.50;5048677;28;20099;-52
2022/08/18 07:45:31;;;;;;;11.60;9.93;;;;;;;28.69;100.00;95903.28;5047127;28;20073;-48
2022/08/18 07:48:05;;;;;;;11.45;9.52;;;;;;;29.06;100.00;95901.06;5042217;28;20084;-52
2022/08/18 07:50:58;;;;;;;14.23;9.88;;;;;;;28.48;100.00;95914.13;5048202;28;20590;-54
2022/08/18 07:53:40;;;;;;;11.43;9.95;;;;;;;28.98;100.00;95898.06;5048313;28;20538;-56
2022/08/18 07:56:15;;;;;;;11.00;9.85;;;;;;;29.45;100.00;95896.84;5048290;28;20088;-50
2022/08/18 07:58:47;;;;;;;14.90;10.02;;;;;;;29.73;100.00;95896.22;5049076;28;20081;-51
2022/08/18 08:01:20;;;;;;;11.07;9.93;;;;;;;29.10;100.00;95895.88;5048169;28;20071;-50
2022/08/18 08:03:54;;;;;;;12.10;10.40;;;;;;;29.86;100.00;95894.75;5048388;28;20084;-52
2022/08/18 08:06:28;;;;;;;10.98;9.23;;;;;;;30.38;100.00;95897.97;5042554;28;20077;-54
2022/08/18 08:09:03;;;;;;;12.40;9.45;;;;;;;30.83;100.00;95885.88;5048336;28;20088;-48
2022/08/18 08:11:43;;;;;;;11.10;9.95;;;;;;;30.39;100.00;95892.25;5046028;28;20089;-51
2022/08/18 08:14:39;;;;;;;11.23;10.07;;;;;;;30.56;100.00;95888.28;5049473;28;20519;-53
2022/08/18 08:17:16;;;;;;;10.40;9.30;;;;;;;30.50;100.00;95896.50;5052085;28;20095;-56
2022/08/18 08:19:57;;;;;;;9.90;8.45;;;;;;;30.68;96.94;95897.69;5051755;28;20068;-54
2022/08/18 08:22:31;;;;;;;10.68;9.55;;;;;;;30.46;100.00;95891.94;5048802;28;20049;-52
2022/08/18 08:25:06;;;;;;;11.73;9.63;;;;;;;30.16;100.00;95892.94;5046261;28;20072;-54
2022/08/18 08:28:08;;;;;;;11.68;8.48;;;;;;;30.39;100.00;95894.97;5051594;28;20080;-52
2022/08/18 08:30:42;;;;;;;10.85;9.75;;;;;;;30.20;100.00;95888.59;5041659;28;20110;-54
2022/08/18 08:33:24;;;;;;;10.68;9.00;;;;;;;30.97;100.00;95888.72;5045591;28;20538;-50
2022/08/18 08:35:58;;;;;;;9.93;8.93;;;;;;;31.04;100.00;95889.22;5048682;28;20080;-51
2022/08/18 08:38:31;;;;;;;10.27;9.23;;;;;;;31.27;100.00;95887.56;5051754;28;20099;-49
2022/08/18 08:41:15;;;;;;;13.68;9.38;;;;;;;30.73;100.00;95888.69;5048672;28;20080;-53
2022/08/18 08:43:50;;;;;;;10.73;8.68;;;;;;;30.78;100.00;95874.25;5051328;28;20080;-52
2022/08/18 08:46:21;;;;;;;11.07;9.38;;;;;;;30.73;100.00;95862.28;5051204;28;20099;-50
2022/08/18 08:48:52;;;;;;;10.63;9.23;;;;;;;31.01;100.00;95861.75;5042231;28;20536;-55
2022/08/18 08:51:29;;;;;;;11.43;9.27;;;;;;;30.26;100.00;95858.34;5051062;28;20463;-52
2022/08/18 08:54:04;;;;;;;12.00;9.30;;;;;;;30.37;100.00;95858.25;5052018;28;20072;-52
2022/08/18 08:56:36;;;;;;;10.05;9.05;;;;;;;30.62;100.00;95849.84;5051404;28;20081;-52
2022/08/18 08:59:11;;;;;;;11.68;9.90;;;;;;;30.38;100.00;95843.53;5051544;28;20107;-52
2022/08/18 09:01:45;;;;;;;10.38;9.30;;;;;;;30.19;100.00;95857.06;5050648;28;20089;-55
2022/08/18 09:04:22;;;;;;;10.80;9.63;;;;;;;30.13;100.00;95848.06;5050836;28;20617;-57
2022/08/18 09:06:57;;;;;;;11.27;10.02;;;;;;;31.12;100.00;95844.19;5045595;28;20116;-53
2022/08/18 09:09:53;;;;;;;11.05;9.20;;;;;;;30.99;100.00;95851.13;5050137;28;20610;-54
2022/08/18 09:12:33;;;;;;;10.10;9.10;;;;;;;31.33;87.13;95839.31;5027917;28;20073;-55
2022/08/18 09:15:16;;;;;;;11.55;9.80;;;;;;;32.17;84.84;95850.41;5045081;28;20068;-58
2022/08/18 09:17:57;;;;;;;10.70;9.63;;;;;;;31.73;85.29;95848.88;5049461;28;20080;-54
2022/08/18 09:20:47;;;;;;;;;;;;;;;32.20;85.17;95849.81;5051574;28;20092;-49
2022/08/18 09:23:20;;;;;;;10.80;9.50;;;;;;;31.67;97.80;95839.13;5044856;28;19963;-56
2022/08/18 09:25:50;;;;;;;12.57;10.63;;;;;;;31.77;83.38;95832.72;5046933;28;20124;-56
2022/08/18 09:28:22;;;;;;;11.52;10.32;;;;;;;32.14;84.17;95842.81;5050097;28;20095;-53
2022/08/18 09:31:14;;;;;;;11.80;10.57;;;;;;;31.47;95.26;95861.22;5049029;28;20080;-51
2022/08/18 09:33:57;;;;;;;13.10;10.48;;;;;;;31.49;90.93;95856.28;5050611;28;20068;-54
2022/08/18 09:36:54;;;;;;;12.07;10.88;;;;;;;31.83;83.72;95854.19;5050088;28;20051;-55
2022/08/18 09:42:31;;;;;;;12.57;10.48;;;;;;;31.51;91.65;95860.34;5046146;28;20574;-55
2022/08/18 09:45:41;;;;;;;12.13;10.93;;;;;;;30.81;100.00;95846.44;5049659;28;20554;-57
2022/08/18 09:48:33;;;;;;;12.20;10.88;;;;;;;31.34;94.07;95841.75;5047617;28;20556;-58
2022/08/18 09:51:23;;;;;;;12.30;11.10;;;;;;;31.25;87.27;95837.19;5051178;28;20088;-54
2022/08/18 09:53:54;;;;;;;12.57;11.10;;;;;;;31.46;86.37;95848.72;5050408;28;20072;-54
2022/08/18 09:57:16;;;;;;;12.65;11.13;;;;;;;31.71;78.35;95845.63;5050475;28;20088;-54
2022/08/18 10:00:11;;;;;;;12.32;9.63;;;;;;;31.87;74.03;95821.72;5042097;28;20103;-52
2022/08/18 10:03:03;;;;;;;11.63;9.65;;;;;;;31.46;84.35;95818.72;5043979;28;20076;-55
2022/08/18 10:05:34;;;;;;;11.27;9.55;;;;;;;31.35;79.29;95821.59;5049640;28;20072;-51
2022/08/18 10:08:27;;;;;;;10.23;9.23;;;;;;;31.73;78.25;95827.06;5050439;28;20093;-50
2022/08/18 10:11:00;;;;;;;10.00;9.00;;;;;;;31.27;72.41;95841.25;5045162;28;20464;-55
2022/08/18 10:13:46;;;;;;;11.35;8.52;;;;;;;31.88;67.97;95835.03;5044613;28;20468;-53
2022/08/18 10:16:22;;;;;;;9.95;8.80;;;;;;;31.62;67.94;95834.53;5049330;28;20087;-54
2022/08/18 10:19:03;;;;;;;9.60;8.30;;;;;;;31.56;69.55;95851.28;5050168;28;20103;-53
2022/08/18 10:22:05;;;;;;;9.93;8.85;;;;;;;32.33;63.40;95849.06;5043937;28;20088;-54
2022/08/18 10:24:37;;;;;;;9.32;8.43;;;;;;;32.62;59.86;95842.56;5043592;28;20091;-51
2022/08/18 10:27:13;;;;;;;12.55;9.25;;;;;;;32.67;61.23;95844.41;5048837;28;20083;-55
2022/08/18 10:30:00;;;;;;;9.18;8.27;;;;;;;32.69;59.58;95845.75;5048934;28;20561;-53
2022/08/18 10:32:44;;;;;;;9.05;8.18;;;;;;;32.89;60.10;95844.53;5048900;28;20092;-56
2022/08/18 10:35:54;;;;;;;9.27;8.38;;;;;;;32.59;58.99;95841.28;5049202;28;20084;-56
2022/08/18 10:38:26;;;;;;;14.27;8.60;;;;;;;32.87;57.56;95841.31;5048343;28;20084;-52
2022/08/18 10:41:04;;;;;;;10.70;9.15;;;;;;;31.91;68.43;95839.91;5045862;28;20460;-55
2022/08/18 10:43:45;;;;;;;11.27;10.07;;;;;;;33.21;57.44;95845.56;5043255;28;20069;-50
2022/08/18 10:46:28;;;;;;;13.25;10.45;;;;;;;32.28;65.53;95851.88;5049438;28;20079;-49
2022/08/18 10:49:23;;;;;;;11.18;10.07;;;;;;;32.52;65.32;95846.31;5048890;28;20088;-49
2022/08/18 10:52:28;;;;;;;11.05;9.93;;;;;;;32.12;69.92;95834.13;5049137;28;20064;-51
2022/08/18 10:55:31;;;;;;;10.85;9.77;;;;;;;33.21;62.00;95812.78;5047410;28;20069;-58
2022/08/18 10:58:40;;;;;;;11.25;10.10;;;;;;;32.60;65.09;95826.50;5048756;28;20084;-52
2022/08/18 11:01:30;;;;;;;15.10;10.95;;;;;;;32.45;68.40;95815.88;5049033;28;20080;-56
2022/08/18 11:04:07;;;;;;;11.65;10.43;;;;;;;33.11;58.68;95807.56;5049038;28;20080;-55
2022/08/18 11:06:48;;;;;;;8.40;7.60;;;;;;;33.87;50.64;95805.09;5049153;28;20077;-53
2022/08/18 11:09:23;;;;;;;8.10;7.30;;;;;;;33.72;50.71;95814.44;5048227;28;20466;-56
2022/08/18 11:11:58;;;;;;;9.25;8.25;;;;;;;33.54;50.47;95814.28;5048706;28;20091;-54
2022/08/18 11:14:47;;;;;;;10.07;8.15;;;;;;;33.77;52.16;95806.94;5049477;28;20097;-54
2022/08/18 11:17:27;;;;;;;10.57;8.10;;;;;;;34.06;48.78;95803.00;5046655;28;20080;-55
2022/08/18 11:19:58;;;;;;;8.88;7.97;;;;;;;34.04;47.77;95810.72;5037982;28;20088;-58
2022/08/18 11:22:29;;;;;;;8.05;7.35;;;;;;;34.48;46.06;95814.53;5048648;28;20100;-53
2022/08/18 11:25:22;;;;;;;8.63;7.72;;;;;;;33.78;48.26;95805.81;5048898;28;20084;-54
2022/08/18 11:27:52;;;;;;;8.27;7.47;;;;;;;34.55;45.21;95797.69;5049005;28;20073;-54
2022/08/18 11:30:21;;;;;;;9.15;7.75;;;;;;;33.84;46.93;95794.78;5043886;28;20080;-54
2022/08/18 11:32:59;;;;;;;9.20;8.10;;;;;;;34.96;46.13;95786.41;5045754;28;20471;-52
2022/08/18 11:35:32;;;;;;;8.80;8.00;;;;;;;35.66;42.73;95787.44;5049142;28;20072;-58
2022/08/18 11:38:03;;;;;;;10.02;7.95;;;;;;;35.82;42.62;95769.34;5043258;28;20076;-58
2022/08/18 11:40:35;;;;;;;8.93;8.05;;;;;;;36.05;42.44;95752.75;5048249;28;20689;-58
2022/08/18 11:43:27;;;;;;;9.45;8.52;;;;;;;34.49;46.37;95761.41;5048434;28;20088;-56
2022/08/18 11:46:13;;;;;;;9.43;8.63;;;;;;;34.53;46.88;95756.13;5043088;28;20730;-56
2022/08/18 11:48:46;;;;;;;11.32;8.48;;;;;;;34.09;48.66;95761.34;5050440;28;20087;-57
2022/08/18 11:51:23;;;;;;;10.38;9.25;;;;;;;34.53;47.55;95759.69;5051686;28;20527;-56
2022/08/18 11:53:54;;;;;;;9.85;8.85;;;;;;;34.87;47.37;95753.53;5052278;28;20084;-58
2022/08/18 11:56:28;;;;;;;10.30;8.70;;;;;;;35.33;45.10;95745.91;5052504;28;20069;-56
2022/08/18 11:59:02;;;;;;;9.52;8.48;;;;;;;35.14;45.63;95727.84;5052770;28;20069;-54
2022/08/18 12:01:37;;;;;;;10.98;8.52;;;;;;;35.08;46.88;95723.63;5051513;28;20083;-52
2022/08/18 12:04:23;;;;;;;9.25;8.25;;;;;;;36.11;42.56;95704.78;5046214;28;20068;-53
2022/08/18 12:07:04;;;;;;;11.65;9.13;;;;;;;34.70;45.89;95707.72;5048967;28;20088;-52
2022/08/18 12:09:38;;;;;;;10.32;9.32;;;;;;;34.48;45.83;95685.84;5051890;28;20103;-55
2022/08/18 12:12:29;;;;;;;10.50;9.15;;;;;;;34.68;47.45;95688.03;5052049;28;20408;-56
2022/08/18 12:15:02;;;;;;;11.75;10.52;;;;;;;34.34;47.29;95676.94;5042878;28;20081;-56